DAOO/ORN METAR and TAF weather

Enter ICAO airport designator
Station Type Date Time Source
DAOO METAR 2023/01/30 11:00 UTC NOAA

DAOO 301100Z 07007KT 040V110 CAVOK 11/04 Q1027


Station Type Date Time Source
DAOO Decoded METAR 2023/01/30 11:00 UTC NOAA

Oran / Es Senia, Algeria (DAOO) 35-38N 000-36W 90M
Jan 30, 2023 - 06:00 AM EST / 2023.01.30 1100 UTC
Wind: from the ENE (070 degrees) at 8 MPH (7 KT) (direction variable):0
Visibility: greater than 7 mile(s):0
Temperature: 51 F (11 C)
Dew Point: 39 F (4 C)
Relative Humidity: 61%
Pressure (altimeter): 30.33 in. Hg (1027 hPa)
ob: DAOO 301100Z 07007KT 040V110 CAVOK 11/04 Q1027
cycle: 11

Station Type Date Time Source
DAOO TAF 2023/01/30 06:33 UTC NOAA

TAF DAOO 300500Z 3006/3106 VRB02KT 9999 SCT030 PROB40
TEMPO 3006/3008 4000 BR SCT010
BECMG 3010/3012 06010KT 9999 FEW026

Example: see airport list